sensor_id;sensor_type;location;lat;lon;timestamp;P1;P2;P0
56495;PMS5003;42804;55.762;38.084;2023-04-01T00:00:09;32.75;28.00;14.75
56495;PMS5003;42804;55.762;38.084;2023-04-01T00:02:38;42.75;35.00;19.00
56495;PMS5003;42804;55.762;38.084;2023-04-01T00:05:07;38.75;29.50;15.25
56495;PMS5003;42804;55.762;38.084;2023-04-01T00:07:36;36.75;33.25;19.00
56495;PMS5003;42804;55.762;38.084;2023-04-01T00:10:07;42.00;40.00;21.00
56495;PMS5003;42804;55.762;38.084;2023-04-01T00:12:37;34.25;25.00;16.00
56495;PMS5003;42804;55.762;38.084;2023-04-01T00:15:07;44.25;32.00;18.50
56495;PMS5003;42804;55.762;38.084;2023-04-01T00:17:35;35.50;26.25;13.50
56495;PMS5003;42804;55.762;38.084;2023-04-01T00:20:04;36.25;27.00;15.75
56495;PMS5003;42804;55.762;38.084;2023-04-01T00:22:34;35.25;27.50;14.50
56495;PMS5003;42804;55.762;38.084;2023-04-01T00:25:02;36.75;26.75;17.00
56495;PMS5003;42804;55.762;38.084;2023-04-01T00:27:34;41.00;35.50;19.00
56495;PMS5003;42804;55.762;38.084;2023-04-01T00:30:04;32.50;27.25;16.50
56495;PMS5003;42804;55.762;38.084;2023-04-01T00:32:33;45.50;30.50;16.00
56495;PMS5003;42804;55.762;38.084;2023-04-01T00:35:02;30.25;22.75;15.50
56495;PMS5003;42804;55.762;38.084;2023-04-01T00:37:30;40.20;32.60;19.40
56495;PMS5003;42804;55.762;38.084;2023-04-01T00:39:59;55.60;44.00;25.40
56495;PMS5003;42804;55.762;38.084;2023-04-01T00:42:28;57.60;38.20;21.00
56495;PMS5003;42804;55.762;38.084;2023-04-01T00:44:59;43.00;36.00;20.20
56495;PMS5003;42804;55.762;38.084;2023-04-01T00:47:47;39.50;30.50;17.25
56495;PMS5003;42804;55.762;38.084;2023-04-01T00:50:15;31.75;27.00;17.00
56495;PMS5003;42804;55.762;38.084;2023-04-01T00:52:44;38.80;33.60;21.00
56495;PMS5003;42804;55.762;38.084;2023-04-01T00:55:13;47.80;34.00;19.00
56495;PMS5003;42804;55.762;38.084;2023-04-01T00:57:43;39.25;31.50;17.75
56495;PMS5003;42804;55.762;38.084;2023-04-01T01:00:15;41.40;35.40;21.00
56495;PMS5003;42804;55.762;38.084;2023-04-01T01:02:44;45.20;37.80;23.80
56495;PMS5003;42804;55.762;38.084;2023-04-01T01:05:13;48.00;36.00;18.80
56495;PMS5003;42804;55.762;38.084;2023-04-01T01:07:43;40.80;27.40;14.20
56495;PMS5003;42804;55.762;38.084;2023-04-01T01:10:16;34.00;30.60;21.60
56495;PMS5003;42804;55.762;38.084;2023-04-01T01:12:47;53.80;43.40;26.20
56495;PMS5003;42804;55.762;38.084;2023-04-01T01:15:22;57.00;44.20;21.60
56495;PMS5003;42804;55.762;38.084;2023-04-01T01:17:55;33.40;25.20;14.20
56495;PMS5003;42804;55.762;38.084;2023-04-01T01:20:29;27.00;23.60;12.60
56495;PMS5003;42804;55.762;38.084;2023-04-01T01:23:08;31.80;29.60;17.60
56495;PMS5003;42804;55.762;38.084;2023-04-01T01:25:40;32.40;24.60;13.00
56495;PMS5003;42804;55.762;38.084;2023-04-01T01:28:17;25.40;22.80;13.00
56495;PMS5003;42804;55.762;38.084;2023-04-01T01:30:51;33.75;29.50;16.25
56495;PMS5003;42804;55.762;38.084;2023-04-01T01:33:35;33.40;25.80;15.00
56495;PMS5003;42804;55.762;38.084;2023-04-01T01:36:11;27.40;22.20;15.80
56495;PMS5003;42804;55.762;38.084;2023-04-01T01:38:42;31.00;27.80;15.00
56495;PMS5003;42804;55.762;38.084;2023-04-01T01:41:10;28.80;25.80;15.20
56495;PMS5003;42804;55.762;38.084;2023-04-01T01:43:40;23.20;19.40;13.00
56495;PMS5003;42804;55.762;38.084;2023-04-01T01:46:12;15.80;6.00;3.60
56495;PMS5003;42804;55.762;38.084;2023-04-01T01:48:43;32.20;23.20;17.60
56495;PMS5003;42804;55.762;38.084;2023-04-01T01:51:14;30.60;26.20;14.80
56495;PMS5003;42804;55.762;38.084;2023-04-01T01:53:42;35.60;31.00;15.60
56495;PMS5003;42804;55.762;38.084;2023-04-01T01:56:12;35.20;28.40;18.40
56495;PMS5003;42804;55.762;38.084;2023-04-01T01:58:43;34.40;27.80;15.00
56495;PMS5003;42804;55.762;38.084;2023-04-01T02:01:16;33.60;28.80;15.40
56495;PMS5003;42804;55.762;38.084;2023-04-01T02:03:45;32.60;28.80;17.60
56495;PMS5003;42804;55.762;38.084;2023-04-01T02:06:16;30.60;23.60;14.60
56495;PMS5003;42804;55.762;38.084;2023-04-01T02:08:47;34.40;26.20;13.20
56495;PMS5003;42804;55.762;38.084;2023-04-01T02:11:19;41.00;31.40;16.80
56495;PMS5003;42804;55.762;38.084;2023-04-01T02:13:50;37.20;31.40;19.00
56495;PMS5003;42804;55.762;38.084;2023-04-01T02:16:41;36.00;28.80;18.20
56495;PMS5003;42804;55.762;38.084;2023-04-01T02:19:12;38.40;33.80;18.80
56495;PMS5003;42804;55.762;38.084;2023-04-01T02:21:42;37.60;32.00;21.00
56495;PMS5003;42804;55.762;38.084;2023-04-01T02:24:12;38.60;31.40;16.80
56495;PMS5003;42804;55.762;38.084;2023-04-01T02:26:41;41.00;30.60;16.00
56495;PMS5003;42804;55.762;38.084;2023-04-01T02:29:10;45.80;33.20;18.40
56495;PMS5003;42804;55.762;38.084;2023-04-01T02:31:39;37.60;30.60;17.60
56495;PMS5003;42804;55.762;38.084;2023-04-01T02:34:09;33.60;27.40;18.00
56495;PMS5003;42804;55.762;38.084;2023-04-01T02:36:37;32.80;26.20;15.20
56495;PMS5003;42804;55.762;38.084;2023-04-01T02:39:07;38.80;29.60;18.00
56495;PMS5003;42804;55.762;38.084;2023-04-01T02:41:38;36.20;29.20;17.20
56495;PMS5003;42804;55.762;38.084;2023-04-01T02:44:07;40.80;31.80;18.40
56495;PMS5003;42804;55.762;38.084;2023-04-01T02:46:36;38.60;33.40;21.00
56495;PMS5003;42804;55.762;38.084;2023-04-01T02:49:04;47.40;35.80;18.20
56495;PMS5003;42804;55.762;38.084;2023-04-01T02:51:33;44.00;31.80;18.00
56495;PMS5003;42804;55.762;38.084;2023-04-01T02:54:02;33.40;28.00;17.20
56495;PMS5003;42804;55.762;38.084;2023-04-01T02:56:32;40.80;31.00;18.00
56495;PMS5003;42804;55.762;38.084;2023-04-01T02:59:01;37.40;28.80;16.00
56495;PMS5003;42804;55.762;38.084;2023-04-01T03:01:29;37.80;34.60;17.80
56495;PMS5003;42804;55.762;38.084;2023-04-01T03:03:59;36.40;32.20;16.20
56495;PMS5003;42804;55.762;38.084;2023-04-01T03:06:28;49.60;35.20;18.40
56495;PMS5003;42804;55.762;38.084;2023-04-01T03:08:56;34.20;26.00;15.00
56495;PMS5003;42804;55.762;38.084;2023-04-01T03:11:27;38.40;29.60;16.00
56495;PMS5003;42804;55.762;38.084;2023-04-01T03:13:57;37.40;33.00;19.40
56495;PMS5003;42804;55.762;38.084;2023-04-01T03:16:26;44.00;31.40;18.80
56495;PMS5003;42804;55.762;38.084;2023-04-01T03:18:54;39.40;29.20;14.80
56495;PMS5003;42804;55.762;38.084;2023-04-01T03:21:26;34.00;28.40;16.00
56495;PMS5003;42804;55.762;38.084;2023-04-01T03:23:57;39.00;30.60;17.60
56495;PMS5003;42804;55.762;38.084;2023-04-01T03:26:27;39.00;32.60;19.00
56495;PMS5003;42804;55.762;38.084;2023-04-01T03:28:58;36.00;33.00;18.80
56495;PMS5003;42804;55.762;38.084;2023-04-01T03:31:27;32.20;28.80;17.80
56495;PMS5003;42804;55.762;38.084;2023-04-01T03:33:57;38.40;31.40;18.00
56495;PMS5003;42804;55.762;38.084;2023-04-01T03:36:26;34.40;26.00;13.40
56495;PMS5003;42804;55.762;38.084;2023-04-01T03:38:54;32.80;30.00;18.00
56495;PMS5003;42804;55.762;38.084;2023-04-01T03:41:32;31.20;23.00;10.00
56495;PMS5003;42804;55.762;38.084;2023-04-01T03:44:03;40.80;28.40;16.40
56495;PMS5003;42804;55.762;38.084;2023-04-01T03:46:31;34.40;29.80;17.20
56495;PMS5003;42804;55.762;38.084;2023-04-01T03:48:59;34.80;30.40;18.20
56495;PMS5003;42804;55.762;38.084;2023-04-01T03:51:28;32.00;27.80;16.80
56495;PMS5003;42804;55.762;38.084;2023-04-01T03:53:56;32.00;25.40;11.20
56495;PMS5003;42804;55.762;38.084;2023-04-01T03:56:25;34.60;24.20;13.00
56495;PMS5003;42804;55.762;38.084;2023-04-01T03:58:55;31.80;27.60;14.80
56495;PMS5003;42804;55.762;38.084;2023-04-01T04:01:28;26.80;20.00;8.40
56495;PMS5003;42804;55.762;38.084;2023-04-01T04:03:57;34.40;24.80;15.20
56495;PMS5003;42804;55.762;38.084;2023-04-01T04:06:26;39.20;28.80;16.40
56495;PMS5003;42804;55.762;38.084;2023-04-01T04:08:54;40.60;28.20;13.80
56495;PMS5003;42804;55.762;38.084;2023-04-01T04:11:23;34.60;28.20;16.60
56495;PMS5003;42804;55.762;38.084;2023-04-01T04:13:52;37.20;30.40;17.00
56495;PMS5003;42804;55.762;38.084;2023-04-01T04:16:22;42.20;29.80;18.60
56495;PMS5003;42804;55.762;38.084;2023-04-01T04:18:59;38.20;31.60;19.00
56495;PMS5003;42804;55.762;38.084;2023-04-01T04:24:22;30.40;24.80;13.00
56495;PMS5003;42804;55.762;38.084;2023-04-01T04:27:11;45.00;32.60;18.80
56495;PMS5003;42804;55.762;38.084;2023-04-01T04:29:54;41.80;34.40;21.60
56495;PMS5003;42804;55.762;38.084;2023-04-01T04:32:23;23.20;13.60;5.60
56495;PMS5003;42804;55.762;38.084;2023-04-01T04:34:53;41.20;32.40;19.00
56495;PMS5003;42804;55.762;38.084;2023-04-01T04:37:22;40.20;27.60;14.40
56495;PMS5003;42804;55.762;38.084;2023-04-01T04:39:50;46.00;31.00;14.60
56495;PMS5003;42804;55.762;38.084;2023-04-01T04:42:19;40.00;33.00;19.00
56495;PMS5003;42804;55.762;38.084;2023-04-01T04:44:53;44.80;35.20;21.60
56495;PMS5003;42804;55.762;38.084;2023-04-01T04:47:25;35.20;28.60;12.60
56495;PMS5003;42804;55.762;38.084;2023-04-01T04:49:56;30.80;27.20;17.40
56495;PMS5003;42804;55.762;38.084;2023-04-01T04:55:21;47.20;31.60;19.80
56495;PMS5003;42804;55.762;38.084;2023-04-01T04:58:06;37.20;29.60;17.40
56495;PMS5003;42804;55.762;38.084;2023-04-01T05:00:35;39.40;30.40;16.80
56495;PMS5003;42804;55.762;38.084;2023-04-01T05:03:08;37.80;25.00;17.00
56495;PMS5003;42804;55.762;38.084;2023-04-01T05:05:39;47.80;37.40;21.00
56495;PMS5003;42804;55.762;38.084;2023-04-01T05:08:08;54.00;41.60;22.00
56495;PMS5003;42804;55.762;38.084;2023-04-01T05:10:37;39.80;36.80;21.60
56495;PMS5003;42804;55.762;38.084;2023-04-01T05:13:05;48.80;38.60;22.00
56495;PMS5003;42804;55.762;38.084;2023-04-01T05:15:36;44.60;33.00;17.80
56495;PMS5003;42804;55.762;38.084;2023-04-01T05:18:06;46.40;34.00;20.00
56495;PMS5003;42804;55.762;38.084;2023-04-01T05:20:35;42.80;36.60;20.60
56495;PMS5003;42804;55.762;38.084;2023-04-01T05:23:05;47.20;37.40;23.40
56495;PMS5003;42804;55.762;38.084;2023-04-01T05:25:36;47.20;36.60;21.60
56495;PMS5003;42804;55.762;38.084;2023-04-01T05:28:05;44.80;34.80;22.80
56495;PMS5003;42804;55.762;38.084;2023-04-01T05:30:34;38.60;33.40;19.00
56495;PMS5003;42804;55.762;38.084;2023-04-01T05:33:16;39.00;32.20;15.40
56495;PMS5003;42804;55.762;38.084;2023-04-01T05:35:45;44.40;38.80;24.80
56495;PMS5003;42804;55.762;38.084;2023-04-01T05:38:18;42.80;35.20;19.40
56495;PMS5003;42804;55.762;38.084;2023-04-01T05:40:58;33.20;25.60;18.20
56495;PMS5003;42804;55.762;38.084;2023-04-01T05:43:28;40.60;35.00;19.80
56495;PMS5003;42804;55.762;38.084;2023-04-01T05:46:31;45.60;37.20;21.40
56495;PMS5003;42804;55.762;38.084;2023-04-01T05:49:20;44.40;33.60;20.00
56495;PMS5003;42804;55.762;38.084;2023-04-01T05:51:50;46.80;39.20;21.80
56495;PMS5003;42804;55.762;38.084;2023-04-01T05:54:21;49.40;40.00;23.00
56495;PMS5003;42804;55.762;38.084;2023-04-01T05:56:49;40.00;33.40;15.40
56495;PMS5003;42804;55.762;38.084;2023-04-01T05:59:21;39.60;35.00;20.80
56495;PMS5003;42804;55.762;38.084;2023-04-01T06:01:54;41.00;38.40;22.80
56495;PMS5003;42804;55.762;38.084;2023-04-01T06:04:25;40.60;39.40;23.60
56495;PMS5003;42804;55.762;38.084;2023-04-01T06:06:55;45.80;36.20;17.80
56495;PMS5003;42804;55.762;38.084;2023-04-01T06:09:26;41.50;33.75;18.00
56495;PMS5003;42804;55.762;38.084;2023-04-01T06:12:10;33.75;31.25;17.75
56495;PMS5003;42804;55.762;38.084;2023-04-01T06:14:56;44.50;36.00;21.00
56495;PMS5003;42804;55.762;38.084;2023-04-01T06:17:35;49.75;39.75;21.75
56495;PMS5003;42804;55.762;38.084;2023-04-01T06:20:15;46.20;37.60;20.60
56495;PMS5003;42804;55.762;38.084;2023-04-01T06:23:07;53.20;38.60;26.00
56495;PMS5003;42804;55.762;38.084;2023-04-01T06:25:44;57.40;43.40;25.00
56495;PMS5003;42804;55.762;38.084;2023-04-01T06:31:05;46.80;39.60;19.80
56495;PMS5003;42804;55.762;38.084;2023-04-01T06:33:47;40.80;32.80;23.20
56495;PMS5003;42804;55.762;38.084;2023-04-01T06:36:27;43.25;36.75;23.00
56495;PMS5003;42804;55.762;38.084;2023-04-01T06:39:02;51.75;42.00;24.75
56495;PMS5003;42804;55.762;38.084;2023-04-01T06:41:46;39.80;34.40;19.40
56495;PMS5003;42804;55.762;38.084;2023-04-01T06:44:27;25.50;18.50;5.75
56495;PMS5003;42804;55.762;38.084;2023-04-01T06:47:29;37.25;31.00;21.75
56495;PMS5003;42804;55.762;38.084;2023-04-01T06:50:21;47.75;38.25;20.75
56495;PMS5003;42804;55.762;38.084;2023-04-01T06:53:12;44.75;38.25;24.25
56495;PMS5003;42804;55.762;38.084;2023-04-01T06:56:02;39.75;36.50;20.50
56495;PMS5003;42804;55.762;38.084;2023-04-01T06:59:05;44.50;41.25;23.00
56495;PMS5003;42804;55.762;38.084;2023-04-01T07:01:35;56.25;41.50;24.25
56495;PMS5003;42804;55.762;38.084;2023-04-01T07:04:05;52.00;41.50;24.25
56495;PMS5003;42804;55.762;38.084;2023-04-01T07:06:38;45.00;40.50;24.00
56495;PMS5003;42804;55.762;38.084;2023-04-01T07:09:09;40.50;36.75;21.25
56495;PMS5003;42804;55.762;38.084;2023-04-01T07:11:59;45.75;39.25;21.00
56495;PMS5003;42804;55.762;38.084;2023-04-01T07:14:49;58.00;43.60;24.60
56495;PMS5003;42804;55.762;38.084;2023-04-01T07:17:19;44.25;34.75;20.50
56495;PMS5003;42804;55.762;38.084;2023-04-01T07:19:51;45.50;40.25;24.75
56495;PMS5003;42804;55.762;38.084;2023-04-01T07:22:24;49.75;39.75;24.25
56495;PMS5003;42804;55.762;38.084;2023-04-01T07:25:14;36.75;32.50;18.75
56495;PMS5003;42804;55.762;38.084;2023-04-01T07:27:50;48.00;39.50;22.50
56495;PMS5003;42804;55.762;38.084;2023-04-01T07:30:20;49.50;42.00;24.75
56495;PMS5003;42804;55.762;38.084;2023-04-01T07:32:52;48.75;42.25;22.50
56495;PMS5003;42804;55.762;38.084;2023-04-01T07:35:23;46.75;40.75;22.00
56495;PMS5003;42804;55.762;38.084;2023-04-01T07:37:58;47.75;40.50;24.50
56495;PMS5003;42804;55.762;38.084;2023-04-01T07:40:32;43.75;38.50;25.50
56495;PMS5003;42804;55.762;38.084;2023-04-01T07:43:09;48.50;41.50;24.75
56495;PMS5003;42804;55.762;38.084;2023-04-01T07:45:49;45.25;39.50;21.50
56495;PMS5003;42804;55.762;38.084;2023-04-01T07:48:21;44.25;41.00;26.00
56495;PMS5003;42804;55.762;38.084;2023-04-01T07:50:55;52.50;41.50;26.00
56495;PMS5003;42804;55.762;38.084;2023-04-01T07:53:29;51.00;41.75;23.50
56495;PMS5003;42804;55.762;38.084;2023-04-01T07:56:02;44.00;38.75;23.00
56495;PMS5003;42804;55.762;38.084;2023-04-01T07:58:44;41.50;37.75;23.50
56495;PMS5003;42804;55.762;38.084;2023-04-01T08:01:40;45.50;40.75;23.00
56495;PMS5003;42804;55.762;38.084;2023-04-01T08:04:20;52.80;43.60;26.20
56495;PMS5003;42804;55.762;38.084;2023-04-01T08:06:52;41.75;34.00;16.00
56495;PMS5003;42804;55.762;38.084;2023-04-01T08:09:28;49.75;41.00;24.25
56495;PMS5003;42804;55.762;38.084;2023-04-01T08:12:27;48.75;40.00;24.00
56495;PMS5003;42804;55.762;38.084;2023-04-01T08:15:05;47.00;41.25;25.25
56495;PMS5003;42804;55.762;38.084;2023-04-01T08:18:06;48.25;40.50;22.75
56495;PMS5003;42804;55.762;38.084;2023-04-01T08:20:39;48.00;38.00;21.75
56495;PMS5003;42804;55.762;38.084;2023-04-01T08:23:11;52.00;43.00;25.25
56495;PMS5003;42804;55.762;38.084;2023-04-01T08:25:43;41.00;37.25;23.00
56495;PMS5003;42804;55.762;38.084;2023-04-01T08:28:15;48.75;39.50;25.25
56495;PMS5003;42804;55.762;38.084;2023-04-01T08:30:45;42.75;35.00;21.25
56495;PMS5003;42804;55.762;38.084;2023-04-01T08:33:19;51.25;42.00;22.50
56495;PMS5003;42804;55.762;38.084;2023-04-01T08:35:58;52.50;42.75;27.00
56495;PMS5003;42804;55.762;38.084;2023-04-01T08:38:29;49.25;40.75;24.50
56495;PMS5003;42804;55.762;38.084;2023-04-01T08:41:06;50.75;43.00;25.00
56495;PMS5003;42804;55.762;38.084;2023-04-01T08:47:06;43.00;38.25;25.00
56495;PMS5003;42804;55.762;38.084;2023-04-01T08:49:52;37.50;32.50;19.00
56495;PMS5003;42804;55.762;38.084;2023-04-01T08:52:52;42.50;37.50;24.25
56495;PMS5003;42804;55.762;38.084;2023-04-01T08:55:36;37.25;34.25;20.00
56495;PMS5003;42804;55.762;38.084;2023-04-01T08:58:18;38.75;34.50;20.75
56495;PMS5003;42804;55.762;38.084;2023-04-01T09:01:07;42.00;36.25;23.25
56495;PMS5003;42804;55.762;38.084;2023-04-01T09:03:49;38.25;31.75;21.00
56495;PMS5003;42804;55.762;38.084;2023-04-01T09:06:32;26.75;22.25;17.25
56495;PMS5003;42804;55.762;38.084;2023-04-01T09:12:00;35.50;33.25;21.00
56495;PMS5003;42804;55.762;38.084;2023-04-01T09:14:41;38.50;35.50;20.00
56495;PMS5003;42804;55.762;38.084;2023-04-01T09:17:31;35.75;32.75;21.25
56495;PMS5003;42804;55.762;38.084;2023-04-01T09:20:15;57.60;47.60;29.80
56495;PMS5003;42804;55.762;38.084;2023-04-01T09:22:52;46.25;39.75;22.50
56495;PMS5003;42804;55.762;38.084;2023-04-01T09:25:28;34.50;33.25;18.50
56495;PMS5003;42804;55.762;38.084;2023-04-01T09:28:02;43.25;36.50;22.50
56495;PMS5003;42804;55.762;38.084;2023-04-01T09:30:48;32.25;25.75;18.00
56495;PMS5003;42804;55.762;38.084;2023-04-01T09:36:18;40.00;36.00;21.75
56495;PMS5003;42804;55.762;38.084;2023-04-01T09:38:55;41.50;38.25;21.25
56495;PMS5003;42804;55.762;38.084;2023-04-01T09:41:27;39.75;35.00;22.50
56495;PMS5003;42804;55.762;38.084;2023-04-01T09:44:13;43.00;38.50;22.75
56495;PMS5003;42804;55.762;38.084;2023-04-01T09:47:01;40.00;32.50;21.00
56495;PMS5003;42804;55.762;38.084;2023-04-01T09:49:37;38.50;31.25;18.50
56495;PMS5003;42804;55.762;38.084;2023-04-01T09:52:20;41.00;36.25;25.25
56495;PMS5003;42804;55.762;38.084;2023-04-01T09:55:03;28.00;25.50;17.00
56495;PMS5003;42804;55.762;38.084;2023-04-01T09:57:44;35.50;32.75;18.75
56495;PMS5003;42804;55.762;38.084;2023-04-01T10:00:46;40.75;34.75;23.00
56495;PMS5003;42804;55.762;38.084;2023-04-01T10:06:21;37.00;33.75;18.75
56495;PMS5003;42804;55.762;38.084;2023-04-01T10:09:01;41.75;36.50;21.50
56495;PMS5003;42804;55.762;38.084;2023-04-01T10:11:52;40.00;37.00;21.75
56495;PMS5003;42804;55.762;38.084;2023-04-01T10:14:40;35.25;31.25;20.50
56495;PMS5003;42804;55.762;38.084;2023-04-01T10:17:28;42.75;37.00;21.00
56495;PMS5003;42804;55.762;38.084;2023-04-01T10:34:32;30.00;28.50;19.00
56495;PMS5003;42804;55.762;38.084;2023-04-01T10:37:08;33.00;29.50;17.75
56495;PMS5003;42804;55.762;38.084;2023-04-01T10:43:28;30.50;28.75;17.00
56495;PMS5003;42804;55.762;38.084;2023-04-01T10:46:15;33.00;28.25;18.00
56495;PMS5003;42804;55.762;38.084;2023-04-01T10:51:45;25.25;23.25;16.50
56495;PMS5003;42804;55.762;38.084;2023-04-01T10:54:44;29.25;27.25;17.50
56495;PMS5003;42804;55.762;38.084;2023-04-01T10:57:40;25.50;23.25;16.50
56495;PMS5003;42804;55.762;38.084;2023-04-01T11:00:54;23.00;21.75;14.25
56495;PMS5003;42804;55.762;38.084;2023-04-01T11:04:15;21.50;20.00;14.00
56495;PMS5003;42804;55.762;38.084;2023-04-01T11:07:23;21.50;19.00;13.75
56495;PMS5003;42804;55.762;38.084;2023-04-01T11:15:57;20.00;18.25;12.25
56495;PMS5003;42804;55.762;38.084;2023-04-01T11:18:51;21.00;20.00;12.00
56495;PMS5003;42804;55.762;38.084;2023-04-01T11:21:38;14.00;12.75;7.00
56495;PMS5003;42804;55.762;38.084;2023-04-01T11:27:42;22.50;18.75;11.25
56495;PMS5003;42804;55.762;38.084;2023-04-01T11:30:29;16.25;16.25;10.50
56495;PMS5003;42804;55.762;38.084;2023-04-01T11:33:02;27.00;25.25;13.50
56495;PMS5003;42804;55.762;38.084;2023-04-01T11:35:53;15.50;13.75;7.75
56495;PMS5003;42804;55.762;38.084;2023-04-01T11:38:26;23.00;21.00;12.75
56495;PMS5003;42804;55.762;38.084;2023-04-01T11:40:59;18.25;16.25;9.75
56495;PMS5003;42804;55.762;38.084;2023-04-01T11:43:48;17.00;16.25;11.25
56495;PMS5003;42804;55.762;38.084;2023-04-01T11:46:43;13.50;12.00;6.00
56495;PMS5003;42804;55.762;38.084;2023-04-01T11:49:20;15.25;13.00;9.00
56495;PMS5003;42804;55.762;38.084;2023-04-01T11:52:08;16.50;16.50;10.00
56495;PMS5003;42804;55.762;38.084;2023-04-01T11:54:49;15.00;14.00;9.00
56495;PMS5003;42804;55.762;38.084;2023-04-01T11:57:28;21.75;18.00;11.25
56495;PMS5003;42804;55.762;38.084;2023-04-01T12:00:14;17.25;16.25;9.00
56495;PMS5003;42804;55.762;38.084;2023-04-01T12:02:50;17.00;13.50;8.00
56495;PMS5003;42804;55.762;38.084;2023-04-01T12:08:15;14.00;12.25;6.25
56495;PMS5003;42804;55.762;38.084;2023-04-01T12:10:49;14.50;14.00;8.50
56495;PMS5003;42804;55.762;38.084;2023-04-01T12:13:26;13.50;12.00;7.00
56495;PMS5003;42804;55.762;38.084;2023-04-01T12:16:03;12.25;12.00;7.75
56495;PMS5003;42804;55.762;38.084;2023-04-01T12:18:34;17.50;13.50;7.25
56495;PMS5003;42804;55.762;38.084;2023-04-01T12:21:08;14.75;12.75;8.00
56495;PMS5003;42804;55.762;38.084;2023-04-01T12:23:49;16.00;14.50;8.00
56495;PMS5003;42804;55.762;38.084;2023-04-01T12:26:25;14.00;13.25;6.75
56495;PMS5003;42804;55.762;38.084;2023-04-01T12:29:03;12.50;12.00;7.50
56495;PMS5003;42804;55.762;38.084;2023-04-01T12:31:41;16.25;14.75;8.00
56495;PMS5003;42804;55.762;38.084;2023-04-01T12:36:59;16.25;14.25;8.50
56495;PMS5003;42804;55.762;38.084;2023-04-01T12:39:36;15.25;14.25;9.00
56495;PMS5003;42804;55.762;38.084;2023-04-01T12:42:10;12.25;12.25;8.75
56495;PMS5003;42804;55.762;38.084;2023-04-01T12:44:47;20.25;17.25;9.00
56495;PMS5003;42804;55.762;38.084;2023-04-01T12:47:29;15.00;13.00;9.00
56495;PMS5003;42804;55.762;38.084;2023-04-01T12:53:00;16.50;15.50;9.00
56495;PMS5003;42804;55.762;38.084;2023-04-01T12:55:37;15.50;12.00;7.00
56495;PMS5003;42804;55.762;38.084;2023-04-01T13:01:02;13.75;12.75;8.00
56495;PMS5003;42804;55.762;38.084;2023-04-01T13:03:40;17.25;14.25;8.50
56495;PMS5003;42804;55.762;38.084;2023-04-01T13:06:26;13.50;12.00;6.00
56495;PMS5003;42804;55.762;38.084;2023-04-01T13:08:58;20.75;18.50;10.25
56495;PMS5003;42804;55.762;38.084;2023-04-01T13:11:33;17.00;13.33;7.67
56495;PMS5003;42804;55.762;38.084;2023-04-01T13:14:21;15.50;15.00;9.75
56495;PMS5003;42804;55.762;38.084;2023-04-01T13:16:58;17.75;14.75;11.00
56495;PMS5003;42804;55.762;38.084;2023-04-01T13:19:34;15.00;13.75;8.50
56495;PMS5003;42804;55.762;38.084;2023-04-01T13:22:13;17.50;16.25;11.50
56495;PMS5003;42804;55.762;38.084;2023-04-01T13:24:45;18.75;15.25;8.75
56495;PMS5003;42804;55.762;38.084;2023-04-01T13:27:22;15.25;14.00;9.00
56495;PMS5003;42804;55.762;38.084;2023-04-01T13:29:59;19.50;15.50;8.25
56495;PMS5003;42804;55.762;38.084;2023-04-01T13:32:32;13.00;13.00;8.00
56495;PMS5003;42804;55.762;38.084;2023-04-01T13:35:13;13.75;12.75;8.50
56495;PMS5003;42804;55.762;38.084;2023-04-01T13:37:51;14.50;12.75;8.25
56495;PMS5003;42804;55.762;38.084;2023-04-01T13:40:32;13.25;11.00;5.50
56495;PMS5003;42804;55.762;38.084;2023-04-01T13:43:02;14.00;12.50;6.25
56495;PMS5003;42804;55.762;38.084;2023-04-01T13:45:34;15.75;13.00;7.50
56495;PMS5003;42804;55.762;38.084;2023-04-01T13:48:23;13.25;12.50;7.75
56495;PMS5003;42804;55.762;38.084;2023-04-01T13:51:02;7.33;6.33;1.67
56495;PMS5003;42804;55.762;38.084;2023-04-01T13:53:46;13.50;13.50;7.50
56495;PMS5003;42804;55.762;38.084;2023-04-01T13:56:24;11.25;11.00;6.00
56495;PMS5003;42804;55.762;38.084;2023-04-01T13:59:15;14.50;12.00;6.00
56495;PMS5003;42804;55.762;38.084;2023-04-01T14:01:49;14.00;11.25;7.50
56495;PMS5003;42804;55.762;38.084;2023-04-01T14:04:34;7.75;7.75;6.00
56495;PMS5003;42804;55.762;38.084;2023-04-01T14:07:15;12.67;12.67;8.00
56495;PMS5003;42804;55.762;38.084;2023-04-01T14:09:58;18.25;14.75;9.50
56495;PMS5003;42804;55.762;38.084;2023-04-01T14:12:30;15.00;13.00;5.25
56495;PMS5003;42804;55.762;38.084;2023-04-01T14:15:14;13.75;12.00;7.75
56495;PMS5003;42804;55.762;38.084;2023-04-01T14:17:50;21.00;16.50;11.25
56495;PMS5003;42804;55.762;38.084;2023-04-01T14:20:33;21.25;17.00;7.50
56495;PMS5003;42804;55.762;38.084;2023-04-01T14:25:55;15.75;14.00;6.50
56495;PMS5003;42804;55.762;38.084;2023-04-01T14:28:29;21.75;18.25;10.75
56495;PMS5003;42804;55.762;38.084;2023-04-01T14:33:47;15.00;12.50;7.75
56495;PMS5003;42804;55.762;38.084;2023-04-01T14:36:35;17.75;16.75;10.25
56495;PMS5003;42804;55.762;38.084;2023-04-01T14:39:14;19.00;16.00;9.75
56495;PMS5003;42804;55.762;38.084;2023-04-01T14:41:47;15.00;12.00;6.50
56495;PMS5003;42804;55.762;38.084;2023-04-01T14:44:30;21.00;18.00;10.75
56495;PMS5003;42804;55.762;38.084;2023-04-01T14:50:02;17.25;15.75;9.25
56495;PMS5003;42804;55.762;38.084;2023-04-01T14:52:31;16.25;14.50;8.00
56495;PMS5003;42804;55.762;38.084;2023-04-01T14:55:01;20.25;17.25;11.00
56495;PMS5003;42804;55.762;38.084;2023-04-01T14:57:40;17.00;15.75;8.75
56495;PMS5003;42804;55.762;38.084;2023-04-01T15:00:12;20.75;18.25;11.00
56495;PMS5003;42804;55.762;38.084;2023-04-01T15:02:50;18.75;17.75;11.00
56495;PMS5003;42804;55.762;38.084;2023-04-01T15:05:26;19.00;15.75;10.00
56495;PMS5003;42804;55.762;38.084;2023-04-01T15:07:59;10.25;10.00;7.25
56495;PMS5003;42804;55.762;38.084;2023-04-01T15:10:35;17.50;15.00;10.00
56495;PMS5003;42804;55.762;38.084;2023-04-01T15:13:12;17.25;15.25;10.50
56495;PMS5003;42804;55.762;38.084;2023-04-01T15:15:51;18.50;18.00;12.25
56495;PMS5003;42804;55.762;38.084;2023-04-01T15:18:25;15.75;15.25;10.00
56495;PMS5003;42804;55.762;38.084;2023-04-01T15:21:05;25.75;20.75;12.50
56495;PMS5003;42804;55.762;38.084;2023-04-01T15:23:38;21.50;18.50;12.00
56495;PMS5003;42804;55.762;38.084;2023-04-01T15:26:13;20.00;15.50;8.75
56495;PMS5003;42804;55.762;38.084;2023-04-01T15:28:47;18.25;14.00;9.00
56495;PMS5003;42804;55.762;38.084;2023-04-01T15:31:18;23.00;19.25;12.25
56495;PMS5003;42804;55.762;38.084;2023-04-01T15:33:54;18.50;17.75;11.00
56495;PMS5003;42804;55.762;38.084;2023-04-01T15:36:29;24.75;19.75;11.00